Tiempo atmosférico en la estación meteorológica de La Aldea de San Nicolás, Las Palmas (318 m.)



Fecha
DESCASC
Temp. máxima en grados centígrados (hora)
DESCASC
Temp. mínima en grados centígrados (hora)
DESCASC
Temp. media en grados centígrados
DESCASC
Racha de viento máxima en m/sg (hora)
DESCASC
Velocidad máxima media en intervalos de 10 minutos(hora)
DESCASC
Precipitaciones diarias en mm
DESCASC
Precipitaciones de 00:00 a 06:00 en mm
DESCASC
Precipitaciones de 06:00 a 12:00 en mm
DESCASC
Precipitaciones de 12:00 a 18:00 en mm
DESCASC
Precipitaciones de 18:00 a 24:00 en mm
DESCASC
10-07-2020 25.8 (13:20) 21.3 (04:10) 23.5 21.94 (18:10) 12.78 (20:40) 0 0 0 0 0
09-07-2020 25.7 (14:20) 21.7 (04:30) 23.7 22.22 (17:40) 16.11 (15:00) 0 0 0 0 0
08-07-2020 32.6 (16:00) 22 (06:00) 27.3 21.94 (17:10) 13.61 (17:10) 0 0 0 0 0
07-07-2020 27.5 (15:10) 22.3 (07:30) 24.9 15.83 (18:00) 9.72 (18:00) 0 0 0 0 0
06-07-2020 27 (15:10) 21.8 (00:00) 24.4 19.44 (16:00) 10.83 (00:40) 0 0 0 0 0
05-07-2020 25.7 (15:20) 21 (00:00) 23.4 23.89 (01:10) 14.17 (19:30) 0 0 0 0 0
04-07-2020 25.9 (15:00) 21.1 (00:00) 23.5 27.78 (05:20) 15.28 (02:10) 0 0 0 0 0
03-07-2020 26.2 (14:40) 21.6 (05:40) 23.9 26.39 (11:50) 15.56 (17:50) 0 0 0 0 0
02-07-2020 26.4 (14:20) 21.2 (00:00) 23.8 23.89 (17:30) 16.11 (19:10) 0 0 0 0 0
01-07-2020 26.3 (15:20) 21.5 (00:00) 23.9 20.83 (18:40) 12.5 (20:00) 0 0 0 0 0
30-06-2020 26.9 (16:00) 21.9 (00:00) 24.4 20 (21:10) 12.22 (20:30) 0 0 0 0 0
29-06-2020 27.9 (14:10) 21.6 (00:00) 24.8 25.56 (19:30) 14.72 (11:50) 0 0 0 0 0
28-06-2020 27.3 (15:50) 21.9 (00:00) 24.6 25.28 (18:40) 13.61 (19:30) 0.2 0 0 0 0.2
27-06-2020 26.1 (14:10) 20.7 (00:00) 23.4 22.22 (19:10) 14.72 (21:50) 0 0 0 0 0
26-06-2020 27.4 (15:10) 21.4 (00:00) 24.4 22.78 (16:30) 12.5 (21:30) 0.2 0 0 0.2 0
25-06-2020 27.7 (15:40) 21.7 (00:00) 24.7 23.89 (20:20) 11.39 (23:40) 0 0 0 0 0
24-06-2020 28.4 (16:40) 21.4 (00:00) 24.9 22.22 (14:20) 11.67 (11:10) 0.2 0.2 0 0 0
23-06-2020 26.3 (14:20) 20.2 (00:00) 23.3 21.11 (13:50) 11.39 (21:50) 0 0 0 0 0
22-06-2020 26 (15:40) 21 (00:00) 23.5 19.17 (18:30) 11.39 (20:00) 0 0 0 0 0
21-06-2020 26.6 (16:10) 21.2 (00:00) 23.9 19.72 (14:10) 12.78 (20:00) 0 0 0 0 0
20-06-2020 26.6 (16:00) 21.4 (00:00) 24 21.39 (23:00) 12.5 (21:40) 0 0 0 0 0
19-06-2020 27.6 (16:40) 21.8 (00:00) 24.7 23.06 (19:40) 14.17 (13:10) 0 0 0 0 0
18-06-2020 28.5 (14:20) 22.2 (00:00) 25.4 15.83 (20:40) 7.78 (23:20) 0 0 0 0 0
17-06-2020 29.9 (00:00) 22.9 (00:00) 26.4 14.17 (12:40) 7.78 (14:10) 0 0 0 0 0
16-06-2020 32.2 (19:10) 21.8 (00:00) 27 14.17 (18:50) 6.39 (13:30) 0 0 0 0 0
15-06-2020 34.9 (15:50) 22 (00:00) 28.5 14.44 (18:10) 7.78 (12:00) 0.4 0.4 0 0 0
14-06-2020 28.2 (18:10) 16.6 (00:00) 22.4 12.78 (19:10) 7.78 (19:10) 0 0 0 0 0
13-06-2020 26.8 (15:10) 19.2 (00:00) 23 13.06 (03:10) 8.06 (21:50) 0 0 0 0 0
12-06-2020 25.8 (14:30) 20.5 (00:00) 23.1 17.5 (23:20) 10 (22:40) 0 0 0 0 0
11-06-2020 26.4 (15:30) 21 (00:00) 23.7 13.61 (16:00) 8.33 (20:30) 0 0 0 0 0

Gráficas

Temp. máximas Temp. mínimas Temp. medias Precipitaciones Rachas de viento máximas Velocidades máximas media en intervalos de 10 minutos

Datos horarios

Fecha y hora oficial Temperatura (ºC) Velocidad del viento (km/h) Dirección del viento Racha (km/h) Dirección de racha Precipitación (mm) Presión (hPa) Tendencia (hPa) Humedad (%)
2020-07-10 23:00:00 22.1 14 Nordeste 37 Nordeste 0 -- -- 63
2020-07-10 22:00:00 22.3 18 Nordeste 37 Nordeste 0 -- -- 64
2020-07-10 21:00:00 23.8 17 Norte 30 Nordeste 0 -- -- 56
2020-07-10 20:00:00 26.2 20 Nordeste 35 Norte 0 -- -- 51
2020-07-10 19:00:00 26.3 21 Nordeste 37 Nordeste 0 -- -- 54
2020-07-10 18:00:00 26.8 28 Nordeste 40 Nordeste 0 -- -- 54
2020-07-10 17:00:00 28.1 27 Nordeste 41 Nordeste 0 -- -- 49
2020-07-10 16:00:00 27.7 23 Nordeste 33 Nordeste 0 -- -- 51
2020-07-10 15:00:00 29.7 22 Sur 36 Sur 0 -- -- 52
2020-07-10 14:00:00 29.9 22 Sur 34 Norte 0 -- -- 51
2020-07-10 13:00:00 27 26 Nordeste 40 Nordeste 0 -- -- 50
2020-07-10 12:00:00 25.9 23 Nordeste 36 Este 0 -- -- 52
2020-07-10 11:00:00 24.5 18 Nordeste 33 Este 0 -- -- 54
2020-07-10 10:00:00 23.2 18 Nordeste 36 Norte 0 -- -- 58
2020-07-10 09:00:00 22 22 Nordeste 42 Nordeste 0 -- -- 58
2020-07-10 08:00:00 20.1 15 Norte 29 Nordeste 0 -- -- 70
2020-07-10 07:00:00 19.9 10 Norte 24 Nordeste 0 -- -- 71
2020-07-10 06:00:00 21 9 Sur 43 Nordeste 0 -- -- 69
2020-07-10 05:00:00 21.7 24 Norte 42 Nordeste 0 -- -- 58
2020-07-10 04:00:00 21.3 7 Sur 28 Norte 0 -- -- 70
2020-07-10 03:00:00 22.4 9 Nordeste 39 Nordeste 0 -- -- 61
2020-07-10 02:00:00 23.3 24 Nordeste 46 Nordeste 0 -- -- 51
2020-07-10 01:00:00 22.9 25 Nordeste 49 Este 0 -- -- 55
2020-07-10 00:00:00 23.8 16 Este 36 Nordeste 0 -- -- 59
2020-07-09 23:00:00 24.7 25 Nordeste 42 Nordeste 0 -- -- 45
2020-07-09 22:00:00 25.2 30 Nordeste 50 Nordeste 0 -- -- 47
2020-07-09 21:00:00 24.5 8 Sur 19 Sur 0 -- -- 67
2020-07-09 20:00:00 28.1 12 Sur 22 Sur 0 -- -- 55
2020-07-09 19:00:00 29.7 13 Sur 27 Sur 0 -- -- 55
2020-07-09 18:00:00 32.5 14 Sur 31 Sur 0 -- -- 45
2020-07-09 17:00:00 33.4 22 Sur 34 Sur 0 -- -- 38
2020-07-09 16:00:00 35.1 21 Sur 30 Sudoeste 0 -- -- 34
2020-07-09 15:00:00 35 13 Sur 25 Sur 0 -- -- 34
2020-07-09 14:00:00 33.5 18 Sur 26 Sur 0 -- -- 41
2020-07-09 13:00:00 33.1 17 Sur 23 Sur 0 -- -- 45
2020-07-09 12:00:00 31.9 17 Sur 22 Sur 0 -- -- 46
2020-07-09 11:00:00 29.7 13 Sur 18 Sur 0 -- -- 50
2020-07-09 10:00:00 27.5 9 Sur 13 Sur 0 -- -- 48
2020-07-09 09:00:00 24 2 Sudoeste 5 Nordeste 0 -- -- 55
2020-07-09 08:00:00 23.4 0 Calma 7 Norte 0 -- -- 56
2020-07-09 07:00:00 23.8 2 Norte 8 Sur 0 -- -- 56
2020-07-09 06:00:00 25 2 Sur 6 Norte 0 -- -- 45
2020-07-09 05:00:00 24.7 2 Nordeste 8 Sur 0 -- -- 51
2020-07-09 04:00:00 25.2 0 Calma 12 Sur 0 -- -- 54
2020-07-09 03:00:00 26.8 3 Norte 7 Norte 0 -- -- 38
2020-07-09 02:00:00 27 5 Norte 12 Sur 0 -- -- 44
2020-07-09 01:00:00 29.1 9 Sur 14 Nordeste 0 -- -- 46
2020-07-09 00:00:00 32.5 10 Nordeste 20 Nordeste 0 -- -- 21
2020-07-08 23:00:00 26.4 2 Sur 5 Sur 0 -- -- 66
2020-07-08 22:00:00 26.7 0 Calma 9 Sur 0 -- -- 65
2020-07-08 21:00:00 27.5 0 Calma 10 Sur 0 -- -- 64
2020-07-08 20:00:00 29.2 6 Sur 17 Sur 0 -- -- 59
2020-07-08 19:00:00 31.1 12 Sudoeste 26 Sur 0 -- -- 55
2020-07-08 18:00:00 33.1 15 Sur 26 Sur 0 -- -- 46
2020-07-08 17:00:00 35.5 15 Sur 28 Sur 0 -- -- 43
2020-07-08 16:00:00 37.6 10 Sur 26 Sur 0 -- -- 31
2020-07-08 15:00:00 35 19 Sur 32 Sur 0 -- -- 36
2020-07-08 14:00:00 35.2 19 Sur 27 Sur 0 -- -- 34
2020-07-08 13:00:00 34.9 16 Sur 25 Sur 0 -- -- 43
2020-07-08 12:00:00 31.2 3 Noroeste 23 Sur 0 -- -- 49
2020-07-08 11:00:00 30 4 Norte 13 Sur 0 -- -- 39
2020-07-08 10:00:00 26.9 8 Sur 16 Sur 0 -- -- 65
2020-07-08 09:00:00 24.9 6 Norte 16 Sur 0 -- -- 60
2020-07-08 08:00:00 26.7 3 Este 10 Norte 0 -- -- 39
2020-07-08 07:00:00 27.6 3 Norte 10 Norte 0 -- -- 37
2020-07-08 06:00:00 25.4 0 Calma 13 Norte 0 -- -- 54
2020-07-08 05:00:00 26.1 8 Norte 14 Norte 0 -- -- 42
2020-07-08 04:00:00 25.1 0 Calma 8 Norte 0 -- -- 51
2020-07-08 03:00:00 24.4 3 Sur 8 Sur 0 -- -- 72
2020-07-08 02:00:00 24.8 4 Sur 7 Sur 0 -- -- 71
2020-07-08 01:00:00 26 2 Sur 6 Sur 0 -- -- 64
2020-07-08 00:00:00 26.7 0 Calma 7 Norte 0 -- -- 53
2020-07-07 23:00:00 25.6 4 Norte 6 Norte 0 -- -- 71
2020-07-07 22:00:00 25.5 0 Calma 5 Norte 0 -- -- 73
2020-07-07 21:00:00 25.7 0 Calma 10 Sur 0 -- -- 71
2020-07-07 20:00:00 28.4 7 Sur 15 Sur 0 -- -- 62
2020-07-07 19:00:00 30.8 9 Sur 20 Sur 0 -- -- 56
2020-07-07 18:00:00 33.2 13 Sudoeste 21 Sur 0 -- -- 51
2020-07-07 17:00:00 33 13 Sudoeste 26 Sur 0 -- -- 52
2020-07-07 16:00:00 33.6 14 Sudoeste 23 Sur 0 -- -- 51
2020-07-07 15:00:00 32.2 14 Sur 26 Sur 0 -- -- 53
2020-07-07 14:00:00 32.7 17 Sur 23 Sur 0 -- -- 53
2020-07-07 13:00:00 31.8 12 Sur 28 Sur 0 -- -- 55
2020-07-07 12:00:00 33.1 9 Sur 22 Sur 0 -- -- 48
2020-07-07 11:00:00 31.6 3 Sur 13 Sur 0 -- -- 40
2020-07-07 10:00:00 27.7 0 Calma 12 Sur 0 -- -- 62
2020-07-07 09:00:00 25.6 10 Sur 18 Sur 0 -- -- 68
2020-07-07 08:00:00 21.7 2 Sur 17 Sudeste 0 -- -- 85
2020-07-07 07:00:00 22.9 8 Sur 19 Sur 0 -- -- 78
2020-07-07 06:00:00 23.9 6 Nordeste 9 Norte 0 -- -- 67
2020-07-07 05:00:00 22.5 3 Este 8 Sur 0 -- -- 84
2020-07-07 04:00:00 22.9 3 Noroeste 24 Sur 0 -- -- 78
2020-07-07 03:00:00 27.4 5 Sur 14 Sur 0 -- -- 51
2020-07-07 02:00:00 24.6 4 Nordeste 10 Sur 0 -- -- 72
2020-07-07 01:00:00 26 0 Calma 7 Sur 0 -- -- 65
2020-07-07 00:00:00 27.2 6 Sur 11 Sur 0 -- -- 63
2020-07-06 23:00:00 26 0 Calma 6 Norte 0 -- -- 67
2020-07-06 22:00:00 25.2 0 Calma 7 Sur 0 -- -- 72
2020-07-06 21:00:00 26.9 5 Sur 11 Sudoeste 0 -- -- 65
2020-07-06 20:00:00 29.1 7 Sur 13 Sur 0 -- -- 58
2020-07-06 19:00:00 30.9 11 Sur 19 Sur 0 -- -- 54
2020-07-06 18:00:00 32.3 13 Sur 29 Sur 0 -- -- 47
2020-07-06 17:00:00 35.3 23 Sur 32 Sur 0 -- -- 34
2020-07-06 16:00:00 37.7 22 Sur 32 Sur 0 -- -- 33
2020-07-06 15:00:00 35.5 17 Sur 26 Sur 0 -- -- 43
2020-07-06 14:00:00 32.3 4 Oeste 33 Sur 0 -- -- 44
2020-07-06 13:00:00 34.7 15 Sur 23 Sur 0 -- -- 40
2020-07-06 12:00:00 33.6 13 Sur 31 Sur 0 -- -- 33
2020-07-06 11:00:00 32.7 4 Sudoeste 15 Sur 0 -- -- 29
2020-07-06 10:00:00 30.4 0 Calma 9 Norte 0 -- -- 28
2020-07-06 09:00:00 26.4 0 Calma 12 Sur 0 -- -- 38
2020-07-06 08:00:00 27.2 6 Norte 11 Sur 0 -- -- 27
2020-07-06 07:00:00 28.1 5 Norte 11 Norte 0 -- -- 24
2020-07-06 06:00:00 26.8 5 Norte 11 Norte 0 -- -- 28
2020-07-06 05:00:00 25.6 4 Nordeste 12 Norte 0 -- -- 33
2020-07-06 04:00:00 23 4 Nordeste 10 Norte 0 -- -- 54
2020-07-06 03:00:00 23.1 2 Sur 8 Norte 0 -- -- 57
2020-07-06 02:00:00 23.1 5 Norte 9 Sur 0 -- -- 58
2020-07-06 01:00:00 23.5 6 Sur 22 Sur 0 -- -- 57
2020-07-06 00:00:00 24 4 Sudeste 13 Sur 0 -- -- 57
2020-07-05 23:00:00 23.6 0 Calma 15 Sur 0 -- -- 66
2020-07-05 22:00:00 26.1 8 Norte 31 Norte 0 -- -- 53
2020-07-05 21:00:00 25.9 21 Norte 39 Norte 0 -- -- 55
2020-07-05 20:00:00 27.5 29 Norte 44 Norte 0 -- -- 51
2020-07-05 19:00:00 29.6 25 Norte 39 Norte 0 -- -- 45
2020-07-05 18:00:00 32.7 18 Sur 25 Sur 0 -- -- 36
2020-07-05 17:00:00 34 17 Sur 24 Sur 0 -- -- 35
2020-07-05 16:00:00 32.9 19 Sur 33 Sudoeste 0 -- -- 39
2020-07-05 15:00:00 32 12 Sur 48 Sur 0 -- -- 38
2020-07-05 14:00:00 33.2 14 Sur 37 Sur 0 -- -- 36
2020-07-05 13:00:00 31.7 9 Sudoeste 27 Sur 0 -- -- 44
2020-07-05 12:00:00 29.9 12 Sur 22 Norte 0 -- -- 50
2020-07-05 11:00:00 25.9 15 Norte 25 Norte 0 -- -- 49
2020-07-05 10:00:00 24.4 12 Norte 25 Norte 0 -- -- 54
2020-07-05 09:00:00 21.5 18 Norte 27 Norte 0 -- -- 62
2020-07-05 08:00:00 20.6 5 Nordeste 26 Norte 0 -- -- 68
2020-07-05 07:00:00 20.5 12 Norte 26 Noroeste 0 -- -- 65
2020-07-05 06:00:00 20.5 15 Norte 26 Norte 0 -- -- 66
2020-07-05 05:00:00 21.3 18 Norte 40 Norte 0 -- -- 61
2020-07-05 04:00:00 21.5 27 Nordeste 42 Nordeste 0 -- -- 61
2020-07-05 03:00:00 21.5 28 Nordeste 44 Nordeste 0 -- -- 62
2020-07-05 02:00:00 21.3 28 Nordeste 42 Nordeste 0 -- -- 64
2020-07-05 01:00:00 21.8 27 Nordeste 52 Nordeste 0 -- -- 63
2020-07-05 00:00:00 22 36 Nordeste 50 Nordeste 0 -- -- 60
2020-07-04 23:00:00 22.3 28 Nordeste 43 Nordeste 0 -- -- 60
2020-07-04 22:00:00 23 24 Norte 42 Norte 0 -- -- 59
2020-07-04 21:00:00 23.8 25 Norte 41 Nordeste 0 -- -- 56
2020-07-04 20:00:00 24 26 Nordeste 40 Nordeste 0 -- -- 57
2020-07-04 19:00:00 24.5 24 Nordeste 40 Nordeste 0 -- -- 57
2020-07-04 18:00:00 27.1 10 Sur 41 Este 0 -- -- 56
2020-07-04 17:00:00 26.7 23 Nordeste 42 Este 0 -- -- 53
2020-07-04 16:00:00 27.4 19 Nordeste 33 Nordeste 0 -- -- 50
2020-07-04 15:00:00 28.3 11 Sudoeste 29 Nordeste 0 -- -- 58
2020-07-04 14:00:00 26.9 19 Nordeste 41 Este 0 -- -- 50
2020-07-04 13:00:00 25.9 26 Nordeste 42 Nordeste 0 -- -- 52
2020-07-04 12:00:00 26.4 17 Nordeste 31 Nordeste 0 -- -- 50
2020-07-04 11:00:00 24.4 15 Nordeste 32 Nordeste 0 -- -- 54
2020-07-04 10:00:00 22.4 17 Nordeste 33 Nordeste 0 -- -- 61
2020-07-04 09:00:00 21.6 22 Nordeste 44 Nordeste 0 -- -- 61
2020-07-04 08:00:00 20.9 29 Nordeste 42 Nordeste 0 -- -- 65
2020-07-04 07:00:00 21 29 Nordeste 43 Nordeste 0 -- -- 64
2020-07-04 06:00:00 21.3 22 Nordeste 39 Norte 0 -- -- 63
2020-07-04 05:00:00 21.9 13 Nordeste 39 Norte 0 -- -- 57
2020-07-04 04:00:00 22.1 19 Nordeste 39 Norte 0 -- -- 57
2020-07-04 03:00:00 21.6 22 Nordeste 37 Nordeste 0 -- -- 60
2020-07-04 02:00:00 22.2 16 Nordeste 39 Norte 0 -- -- 57
2020-07-04 01:00:00 22.6 23 Nordeste 41 Nordeste 0 -- -- 56
2020-07-04 00:00:00 23.7 10 Nordeste 40 Nordeste 0 -- -- 52
2020-07-03 23:00:00 23.9 27 Nordeste 50 Nordeste 0 -- -- 53
2020-07-03 22:00:00 23.9 35 Nordeste 49 Nordeste 0 -- -- 55
2020-07-03 21:00:00 24.2 27 Nordeste 46 Nordeste 0 -- -- 56
2020-07-03 20:00:00 25.4 28 Nordeste 47 Nordeste 0 -- -- 56
2020-07-03 19:00:00 26.5 31 Nordeste 42 Nordeste 0 -- -- 53
2020-07-03 18:00:00 28.2 31 Nordeste 45 Nordeste 0 -- -- 47
2020-07-03 17:00:00 29.5 20 Nordeste 30 Nordeste 0 -- -- 49
2020-07-03 16:00:00 31.5 18 Sur 32 Sur 0 -- -- 50
2020-07-03 15:00:00 30.4 24 Sur 31 Sur 0 -- -- 54
2020-07-03 14:00:00 30.2 24 Sur 33 Sur 0 -- -- 53
2020-07-03 13:00:00 29.9 19 Sur 31 Nordeste 0 -- -- 55
2020-07-03 12:00:00 27.6 10 Sur 32 Nordeste 0 -- -- 58
2020-07-03 11:00:00 27.2 14 Nordeste 27 Norte 0 -- -- 46
2020-07-03 10:00:00 26.1 11 Sur 21 Norte 0 -- -- 54
2020-07-03 09:00:00 23.6 9 Norte 28 Norte 0 -- -- 53
2020-07-03 08:00:00 22.6 10 Norte 27 Norte 0 -- -- 56
2020-07-03 07:00:00 22 5 Norte 23 Norte 0 -- -- 58
2020-07-03 06:00:00 21.8 16 Norte 23 Norte 0 -- -- 62
2020-07-03 05:00:00 21.5 4 Sudeste 24 Sur 0 -- -- 73
2020-07-03 04:00:00 22.4 11 Norte 32 Norte 0 -- -- 60
2020-07-03 03:00:00 22.6 12 Sur 32 Norte 0 -- -- 70
2020-07-03 02:00:00 23.2 6 Nordeste 34 Norte 0 -- -- 58
2020-07-03 01:00:00 22.9 14 Norte 33 Norte 0 -- -- 60
2020-07-03 00:00:00 24 7 Norte 42 Nordeste 0 -- -- 58
2020-07-02 23:00:00 23.3 17 Norte 31 Nordeste 0 -- -- 60
2020-07-02 22:00:00 23.4 9 Sur 37 Norte 0 -- -- 71
2020-07-02 21:00:00 24.8 25 Norte 47 Nordeste 0 -- -- 54
2020-07-02 20:00:00 26.5 9 Sur 35 Nordeste 0 -- -- 59
2020-07-02 19:00:00 26.2 12 Sudoeste 46 Nordeste 0 -- -- 61
2020-07-02 18:00:00 29.4 9 Oeste 40 Nordeste 0 -- -- 49
2020-07-02 17:00:00 29.9 14 Sur 27 Sur 0 -- -- 53
2020-07-02 16:00:00 32.7 18 Sur 33 Sur 0 -- -- 47
2020-07-02 15:00:00 33.1 24 Sur 35 Noroeste 0 -- -- 44
2020-07-02 14:00:00 31.4 13 Nordeste 31 Nordeste 0 -- -- 42
2020-07-02 13:00:00 29.8 14 Nordeste 31 Este 0 -- -- 44
2020-07-02 12:00:00 27.8 15 Sur 41 Sur 0 -- -- 62
2020-07-02 11:00:00 26.9 13 Nordeste 28 Norte 0 -- -- 48
2020-07-02 10:00:00 22.5 17 Nordeste 28 Nordeste 0 -- -- 67
2020-07-02 09:00:00 23 8 Sur 27 Norte 0 -- -- 71
2020-07-02 08:00:00 23.3 21 Norte 35 Norte 0 -- -- 56
2020-07-02 07:00:00 22.9 9 Norte 22 Norte 0 -- -- 54
2020-07-02 06:00:00 21.3 8 Sudoeste 24 Norte 0 -- -- 73
2020-07-02 05:00:00 20.9 5 Sur 16 Sur 0 -- -- 80
2020-07-02 04:00:00 21.9 10 Sur 21 Norte 0 -- -- 73
2020-07-02 03:00:00 21.1 12 Norte 22 Nordeste 0 -- -- 75
2020-07-02 02:00:00 21.1 10 Sur 15 Sur 0 -- -- 84
2020-07-02 01:00:00 22.8 5 Sur 17 Sudoeste 0 -- -- 74
2020-07-02 00:00:00 23.2 3 Este 15 Sur 0 -- -- 64
2020-07-01 23:00:00 23.1 5 Noroeste 19 Norte 0 -- -- 67
2020-07-01 22:00:00 23.9 17 Norte 31 Norte 0 -- -- 61
2020-07-01 21:00:00 24.9 5 Sudoeste 30 Norte 0 -- -- 58
2020-07-01 20:00:00 27 18 Noroeste 26 Norte 0 -- -- 59
2020-07-01 19:00:00 27.6 7 Sudoeste 23 Sur 0 -- -- 58
2020-07-01 18:00:00 29.1 17 Sur 35 Sur 0 -- -- 54
2020-07-01 17:00:00 30.7 26 Sur 49 Sur 0 -- -- 52
2020-07-01 16:00:00 33.6 21 Sur 29 Sur 0 -- -- 44
2020-07-01 15:00:00 33.6 12 Sur 25 Sur 0 -- -- 43
2020-07-01 14:00:00 30.7 13 Sudoeste 31 Sur 0 -- -- 50
2020-07-01 13:00:00 29.8 16 Sur 30 Sur 0 -- -- 52
2020-07-01 12:00:00 27.2 19 Sur 34 Sur 0 -- -- 58
2020-07-01 11:00:00 25 12 Nordeste 23 Sur 0 -- -- 57
2020-07-01 10:00:00 22.9 4 Sur 9 Sur 0 -- -- 69
2020-07-01 09:00:00 20.4 0 Calma 9 Sudoeste 0 -- -- 77
2020-07-01 08:00:00 19.5 3 Sudeste 17 Nordeste 0 -- -- 79
2020-07-01 07:00:00 19.6 9 Norte 15 Norte 0 -- -- 81
2020-07-01 06:00:00 19.6 3 Nordeste 12 Sur 0 -- -- 85
2020-07-01 05:00:00 20 5 Sur 20 Sur 0 -- -- 84
2020-07-01 04:00:00 20.4 4 Norte 20 Noroeste 0 -- -- 71
2020-07-01 03:00:00 19.9 10 Norte 19 Norte 0 -- -- 76
2020-07-01 02:00:00 20.2 8 Norte 17 Nordeste 0 -- -- 75
2020-07-01 01:00:00 20.7 12 Norte 27 Norte 0 -- -- 73
2020-07-01 00:00:00 21.3 13 Norte 28 Nordeste 0 -- -- 71
2020-06-30 23:00:00 21.5 6 Sur 21 Noroeste 0 -- -- 76
2020-06-30 22:00:00 21.8 5 Norte 18 Nordeste 0 -- -- 71
2020-06-30 21:00:00 23.1 6 Sur 18 Sur 0 -- -- 72
2020-06-30 20:00:00 26.2 12 Sur 23 Sur 0 -- -- 57
2020-06-30 19:00:00 28 17 Sur 27 Sur 0 -- -- 56
2020-06-30 18:00:00 29.4 19 Sur 31 Sur 0 -- -- 53
2020-06-30 17:00:00 30 18 Sur 33 Sur 0 -- -- 52
2020-06-30 16:00:00 30.5 20 Sur 34 Sur 0 -- -- 48
2020-06-30 15:00:00 30.9 26 Sur 33 Sur 0 -- -- 42
2020-06-30 14:00:00 30.8 18 Sur 28 Sur 0 -- -- 47
2020-06-30 13:00:00 28.8 20 Sur 34 Sur 0 -- -- 53
2020-06-30 12:00:00 26.9 21 Sur 30 Sur 0 -- -- 60
2020-06-30 11:00:00 25.2 15 Sur 29 Este 0 -- -- 64
2020-06-30 10:00:00 22.7 15 Nordeste 34 Nordeste 0 -- -- 61
2020-06-30 09:00:00 20.1 18 Nordeste 29 Nordeste 0 -- -- 71
2020-06-30 08:00:00 18.9 7 Nordeste 16 Nordeste 0 -- -- 78
2020-06-30 07:00:00 18.8 3 Nordeste 13 Este 0 -- -- 77
2020-06-30 06:00:00 20 12 Este 27 Nordeste 0 -- -- 72
2020-06-30 05:00:00 20.1 14 Nordeste 29 Nordeste 0 -- -- 71
2020-06-30 04:00:00 20 12 Nordeste 22 Este 0 -- -- 72
2020-06-30 03:00:00 20.2 10 Nordeste 40 Nordeste 0 -- -- 71
2020-06-30 02:00:00 20.8 25 Nordeste 42 Nordeste 0 -- -- 68
2020-06-30 01:00:00 20.8 22 Nordeste 41 Nordeste 0 -- -- 69
2020-06-30 00:00:00 20.6 15 Nordeste 27 Nordeste 0 -- -- 70
2020-06-29 23:00:00 21.2 19 Nordeste 45 Este 0 -- -- 71
2020-06-29 22:00:00 21.6 28 Nordeste 50 Nordeste 0 -- -- 68
2020-06-29 21:00:00 22.2 24 Nordeste 40 Nordeste 0 -- -- 67
2020-06-29 20:00:00 24.3 18 Norte 36 Noroeste 0 -- -- 60
2020-06-29 19:00:00 25.4 22 Norte 37 Norte 0 -- -- 56
2020-06-29 18:00:00 26.6 23 Norte 42 Noroeste 0 -- -- 52
2020-06-29 17:00:00 26.1 22 Norte 39 Noroeste 0 -- -- 56
2020-06-29 16:00:00 28.3 13 Sudoeste 31 Sur 0 -- -- 50
2020-06-29 15:00:00 26.6 21 Norte 40 Norte 0 -- -- 55
2020-06-29 14:00:00 26.1 22 Norte 40 Norte 0 -- -- 55
2020-06-29 13:00:00 28.4 18 Sur 31 Sur 0 -- -- 54
2020-06-29 12:00:00 27.7 19 Sur 28 Sur 0 -- -- 55
2020-06-29 11:00:00 26.5 13 Sur 21 Sudoeste 0 -- -- 54
2020-06-29 10:00:00 23.1 14 Sur 19 Sur 0 -- -- 72
2020-06-29 09:00:00 19.4 14 Sur 19 Sur 0 -- -- 84
2020-06-29 08:00:00 19.2 4 Sudoeste 18 Sudoeste 0 -- -- 85
2020-06-29 07:00:00 19.8 7 Sur 19 Norte 0 -- -- 76
2020-06-29 06:00:00 20.4 8 Nordeste 31 Noroeste 0 -- -- 71
2020-06-29 05:00:00 21.7 8 Norte 35 Este 0 -- -- 62
2020-06-29 04:00:00 21.2 18 Nordeste 37 Este 0 -- -- 65
2020-06-29 03:00:00 21.1 12 Nordeste 38 Este 0 -- -- 65
2020-06-29 02:00:00 21.6 20 Nordeste 44 Nordeste 0 -- -- 64
2020-06-29 01:00:00 21.9 20 Nordeste 42 Este 0 -- -- 63
2020-06-29 00:00:00 22.1 19 Nordeste 37 Nordeste 0 -- -- 60
2020-06-28 23:00:00 22.1 13 Nordeste 39 Nordeste 0 -- -- 61
2020-06-28 22:00:00 22.2 22 Nordeste 44 Este 0 -- -- 61
2020-06-28 21:00:00 22.5 19 Nordeste 36 Nordeste 0 -- -- 61
2020-06-28 20:00:00 24.4 19 Nordeste 30 Nordeste 0 -- -- 55
2020-06-28 19:00:00 26.1 21 Nordeste 34 Nordeste 0 -- -- 51
2020-06-28 18:00:00 26.9 20 Norte 38 Noroeste 0 -- -- 49
2020-06-28 17:00:00 26.5 23 Norte 37 Norte 0 -- -- 52
2020-06-28 16:00:00 30.2 15 Sur 32 Norte 0 -- -- 44
2020-06-28 15:00:00 27.6 17 Nordeste 31 Norte 0 -- -- 51
2020-06-28 14:00:00 27 16 Norte 31 Sur 0 -- -- 52
2020-06-28 13:00:00 28.3 22 Sur 31 Sur 0 -- -- 52
2020-06-28 12:00:00 25.9 12 Nordeste 32 Este 0 -- -- 54
2020-06-28 11:00:00 23.9 18 Nordeste 35 Nordeste 0 -- -- 57
2020-06-28 10:00:00 22.4 19 Nordeste 29 Nordeste 0 -- -- 60
2020-06-28 09:00:00 20.7 14 Nordeste 33 Este 0 -- -- 64
2020-06-28 08:00:00 19.9 14 Norte 28 Nordeste 0 -- -- 65
2020-06-28 07:00:00 19.5 13 Nordeste 26 Nordeste 0 -- -- 69
2020-06-28 06:00:00 19.9 10 Nordeste 22 Este 0 -- -- 66
2020-06-28 05:00:00 20.2 11 Nordeste 28 Nordeste 0 -- -- 62
2020-06-28 04:00:00 20.2 15 Nordeste 31 Nordeste 0 -- -- 62
2020-06-28 03:00:00 19.9 15 Nordeste 21 Nordeste 0 -- -- 66
2020-06-28 02:00:00 20.2 9 Nordeste 21 Nordeste 0 -- -- 65
2020-06-28 01:00:00 20.5 12 Nordeste 24 Nordeste 0 -- -- 65
2020-06-28 00:00:00 20.8 10 Nordeste 24 Nordeste 0 -- -- 63
2020-06-27 23:00:00 21.3 15 Nordeste 29 Norte 0 -- -- 62
2020-06-27 22:00:00 22.1 16 Norte 30 Nordeste 0 -- -- 61
2020-06-27 21:00:00 22.2 17 Nordeste 27 Este 0 -- -- 60
2020-06-27 20:00:00 24.8 9 Oeste 23 Sur 0 -- -- 60
2020-06-27 19:00:00 26.4 14 Sudeste 36 Nordeste 0 -- -- 55
2020-06-27 18:00:00 26.1 17 Nordeste 30 Nordeste 0 -- -- 49
2020-06-27 17:00:00 29.9 23 Sur 33 Sudoeste 0 -- -- 44
2020-06-27 16:00:00 30 22 Sur 37 Sur 0 -- -- 45
2020-06-27 15:00:00 29.6 25 Sur 38 Sudoeste 0 -- -- 48
2020-06-27 14:00:00 29 22 Sur 33 Sur 0 -- -- 49
2020-06-27 13:00:00 27.6 22 Sur 31 Sur 0 -- -- 53
2020-06-27 12:00:00 26.1 14 Sur 24 Este 0 -- -- 56
2020-06-27 11:00:00 23.3 13 Nordeste 24 Nordeste 0 -- -- 54
2020-06-27 10:00:00 21.6 9 Nordeste 19 Nordeste 0 -- -- 59
2020-06-27 09:00:00 18.9 6 Nordeste 25 Nordeste 0 -- -- 68
2020-06-27 08:00:00 18.4 14 Nordeste 26 Nordeste 0 -- -- 69
2020-06-27 07:00:00 18.6 14 Nordeste 27 Nordeste 0 -- -- 70
2020-06-27 06:00:00 19.2 12 Nordeste 33 Nordeste 0 -- -- 68
2020-06-27 05:00:00 19.8 22 Nordeste 35 Nordeste 0 -- -- 64
2020-06-27 04:00:00 19.6 22 Nordeste 34 Nordeste 0 -- -- 68
2020-06-27 03:00:00 19.4 17 Nordeste 27 Nordeste 0 -- -- 70
2020-06-27 02:00:00 19.8 14 Nordeste 29 Nordeste 0 -- -- 67
2020-06-27 01:00:00 20.3 18 Nordeste 32 Nordeste 0 -- -- 66
2020-06-27 00:00:00 20.3 16 Nordeste 35 Nordeste 0 -- -- 68
2020-06-26 23:00:00 20.4 17 Nordeste 33 Este 0 -- -- 65
2020-06-26 22:00:00 20.7 19 Nordeste 36 Nordeste 0 -- -- 67
2020-06-26 21:00:00 21.9 19 Nordeste 36 Nordeste 0 -- -- 66
2020-06-26 20:00:00 24.4 14 Norte 25 Norte 0 -- -- 58
2020-06-26 19:00:00 26.9 11 Sur 20 Sudoeste 0 -- -- 54
2020-06-26 18:00:00 26.7 13 Noroeste 28 Norte 0 -- -- 52
2020-06-26 17:00:00 26.8 15 Norte 36 Sur 0 -- -- 51
2020-06-26 16:00:00 30.5 24 Sur 33 Sur 0 -- -- 45
2020-06-26 15:00:00 29.9 21 Sur 32 Sur 0 -- -- 44
2020-06-26 14:00:00 29.2 23 Sur 32 Sur 0 -- -- 46
2020-06-26 13:00:00 26.4 12 Noroeste 28 Sudoeste 0 -- -- 48
2020-06-26 12:00:00 26.8 17 Sur 31 Sur 0 -- -- 57
2020-06-26 11:00:00 23.8 14 Nordeste 32 Este 0 -- -- 51
2020-06-26 10:00:00 21.8 15 Nordeste 32 Este 0 -- -- 57
2020-06-26 09:00:00 19.7 13 Nordeste 25 Nordeste 0 -- -- 65
2020-06-26 08:00:00 19.6 14 Nordeste 31 Nordeste 0 -- -- 67
2020-06-26 07:00:00 19.8 16 Nordeste 39 Este 0 -- -- 66
2020-06-26 06:00:00 19.9 15 Nordeste 32 Nordeste 0 -- -- 66
2020-06-26 05:00:00 20.8 15 Nordeste 39 Nordeste 0 -- -- 56
2020-06-26 04:00:00 20.5 21 Nordeste 35 Este 0 -- -- 59
2020-06-26 03:00:00 20.5 18 Nordeste 31 Este 0 -- -- 59
2020-06-26 02:00:00 20.2 9 Nordeste 23 Nordeste 0 -- -- 64
2020-06-26 01:00:00 20.8 14 Nordeste 32 Nordeste 0 -- -- 62
2020-06-26 00:00:00 20.9 16 Nordeste 31 Nordeste 0 -- -- 63
2020-06-25 23:00:00 20.9 13 Nordeste 27 Este 0 -- -- 63
2020-06-25 22:00:00 21.6 6 Norte 38 Noroeste 0 -- -- 60
2020-06-25 21:00:00 22.1 21 Norte 39 Norte 0 -- -- 57
2020-06-25 20:00:00 23.3 22 Norte 34 Norte 0 -- -- 57
2020-06-25 19:00:00 24.4 19 Norte 35 Norte 0 -- -- 56
2020-06-25 18:00:00 25.1 24 Norte 41 Norte 0 -- -- 53
2020-06-25 17:00:00 25 28 Norte 47 Norte 0 -- -- 53
2020-06-25 16:00:00 24.8 28 Norte 45 Norte 0 -- -- 55
2020-06-25 15:00:00 30 17 Sur 31 Sur 0 -- -- 43
2020-06-25 14:00:00 25.8 16 Noroeste 42 Norte 0 -- -- 54
2020-06-25 13:00:00 24.6 28 Norte 40 Norte 0 -- -- 55
2020-06-25 12:00:00 26.1 18 Sur 37 Norte 0 -- -- 55
2020-06-25 11:00:00 22.9 16 Norte 30 Noroeste 0 -- -- 58
2020-06-25 10:00:00 22.3 15 Noroeste 31 Noroeste 0 -- -- 56
2020-06-25 09:00:00 19.4 4 Nordeste 13 Nordeste 0 -- -- 68
2020-06-25 08:00:00 18.9 8 Noroeste 19 Nordeste 0 -- -- 68
2020-06-25 07:00:00 19.5 12 Nordeste 23 Nordeste 0 -- -- 67
2020-06-25 06:00:00 19.6 14 Nordeste 29 Nordeste 0 -- -- 69
2020-06-25 05:00:00 19.5 5 Sur 18 Norte 0 -- -- 68
2020-06-25 04:00:00 20.1 6 Este 28 Nordeste 0 -- -- 62
2020-06-25 03:00:00 20.6 16 Nordeste 37 Nordeste 0 -- -- 62
2020-06-25 02:00:00 20.7 18 Nordeste 33 Norte 0 -- -- 62
2020-06-25 01:00:00 21.1 13 Norte 28 Norte 0 -- -- 60
2020-06-25 00:00:00 21.2 9 Nordeste 31 Este 0 -- -- 61
2020-06-24 23:00:00 21.2 22 Nordeste 37 Nordeste 0 -- -- 61
2020-06-24 22:00:00 21.8 23 Norte 42 Norte 0 -- -- 62
2020-06-24 21:00:00 21.5 15 Norte 39 Norte 0 -- -- 66
2020-06-24 20:00:00 23.1 23 Norte 38 Norte 0 -- -- 58
2020-06-24 19:00:00 24.6 24 Norte 36 Norte 0 -- -- 54
2020-06-24 18:00:00 24.8 23 Norte 41 Norte 0 -- -- 55
2020-06-24 17:00:00 28.1 14 Sudoeste 31 Sur 0 -- -- 46
2020-06-24 16:00:00 29.1 21 Sur 38 Sur 0 -- -- 48
2020-06-24 15:00:00 26.3 12 Noroeste 35 Norte 0 -- -- 55
2020-06-24 14:00:00 26.1 21 Norte 33 Norte 0 -- -- 53
2020-06-24 13:00:00 25.6 14 Oeste 29 Sur 0 -- -- 60
2020-06-24 12:00:00 26.3 21 Sur 30 Sur 0 -- -- 59
2020-06-24 11:00:00 24.3 15 Norte 33 Nordeste 0 -- -- 52
2020-06-24 10:00:00 22.2 19 Nordeste 35 Nordeste 0 -- -- 61
2020-06-24 09:00:00 20 21 Nordeste 39 Nordeste 0 -- -- 66
2020-06-24 08:00:00 19.6 21 Nordeste 39 Nordeste 0 -- -- 68
2020-06-24 07:00:00 19.8 21 Nordeste 37 Nordeste 0 -- -- 66
2020-06-24 06:00:00 20.1 20 Nordeste 41 Nordeste 0 -- -- 63
2020-06-24 05:00:00 19.6 22 Nordeste 36 Nordeste 0 -- -- 69
2020-06-24 04:00:00 19.9 18 Nordeste 34 Nordeste 0 -- -- 66
2020-06-24 03:00:00 20.4 21 Nordeste 35 Nordeste 0 -- -- 64
2020-06-24 02:00:00 20.2 15 Norte 26 Nordeste 0 -- -- 66
2020-06-24 01:00:00 19.8 14 Nordeste 26 Nordeste 0 -- -- 71
2020-06-24 00:00:00 20.3 12 Nordeste 31 Este 0 -- -- 69
2020-06-23 23:00:00 20.6 16 Nordeste 28 Nordeste 0 -- -- 68
2020-06-23 22:00:00 20.7 21 Nordeste 32 Nordeste 0 -- -- 70
2020-06-23 21:00:00 21.7 18 Nordeste 29 Nordeste 0 -- -- 68
2020-06-23 20:00:00 24.1 15 Nordeste 30 Nordeste 0 -- -- 59
2020-06-23 19:00:00 27.2 9 Sur 28 Este 0 -- -- 51
2020-06-23 18:00:00 28.5 10 Sur 29 Sudoeste 0 -- -- 52
2020-06-23 17:00:00 30.5 24 Sur 34 Sur 0 -- -- 44
2020-06-23 16:00:00 29.7 25 Sur 40 Sur 0 -- -- 50
2020-06-23 15:00:00 27.3 21 Nordeste 31 Nordeste 0 -- -- 51
2020-06-23 14:00:00 27.4 18 Norte 28 Norte 0 -- -- 47
2020-06-23 13:00:00 26.7 15 Norte 32 Nordeste 0 -- -- 49
2020-06-23 12:00:00 25.6 17 Nordeste 35 Este 0 -- -- 51
2020-06-23 11:00:00 24.1 21 Nordeste 36 Nordeste 0 -- -- 54
2020-06-23 10:00:00 22.4 18 Nordeste 32 Nordeste 0 -- -- 58
2020-06-23 09:00:00 18.7 4 Sur 15 Este 0 -- -- 80
2020-06-23 08:00:00 17.8 3 Este 7 Sur 0 -- -- 81
2020-06-23 07:00:00 18.3 0 Calma 18 Oeste 0 -- -- 76
2020-06-23 06:00:00 19.2 6 Sur 22 Norte 0 -- -- 70
2020-06-23 05:00:00 19.1 4 Nordeste 21 Norte 0 -- -- 72
2020-06-23 04:00:00 19 7 Norte 15 Noroeste 0 -- -- 75
2020-06-23 03:00:00 19.2 0 Calma 13 Norte 0 -- -- 77
2020-06-23 02:00:00 19.8 5 Este 19 Norte 0 -- -- 74
2020-06-23 01:00:00 20.3 3 Sudeste 13 Noroeste 0 -- -- 79
2020-06-23 00:00:00 20.7 7 Norte 29 Nordeste 0 -- -- 67
2020-06-22 23:00:00 20.7 19 Nordeste 30 Nordeste 0 -- -- 70
2020-06-22 22:00:00 21 20 Nordeste 41 Nordeste 0 -- -- 69
2020-06-22 21:00:00 21.8 26 Nordeste 35 Nordeste 0 -- -- 68
2020-06-22 20:00:00 24.3 24 Nordeste 35 Nordeste 0 -- -- 60
2020-06-22 19:00:00 26.1 21 Nordeste 31 Nordeste 0 -- -- 56
2020-06-22 18:00:00 30.2 20 Sur 27 Sur 0 -- -- 49
2020-06-22 17:00:00 30.6 21 Sur 30 Sur 0 -- -- 48
2020-06-22 16:00:00 30.9 22 Sur 32 Sur 0 -- -- 49
2020-06-22 15:00:00 31.5 19 Sur 30 Sur 0 -- -- 48
2020-06-22 14:00:00 29.3 15 Sur 23 Sur 0 -- -- 54
2020-06-22 13:00:00 28 12 Sur 22 Sur 0 -- -- 58
2020-06-22 12:00:00 27.5 17 Sur 23 Sur 0 -- -- 59
2020-06-22 11:00:00 25.7 18 Sur 23 Sur 0 -- -- 63
2020-06-22 10:00:00 23.1 6 Nordeste 15 Nordeste 0 -- -- 54
2020-06-22 09:00:00 19.2 6 Nordeste 15 Norte 0 -- -- 71
2020-06-22 08:00:00 18.1 4 Norte 11 Oeste 0 -- -- 81
2020-06-22 07:00:00 18.6 0 Calma 8 Sur 0 -- -- 79
2020-06-22 06:00:00 19.3 5 Sur 18 Norte 0 -- -- 73
2020-06-22 05:00:00 19.7 3 Nordeste 15 Noroeste 0 -- -- 66
2020-06-22 04:00:00 19.6 3 Sudeste 17 Nordeste 0 -- -- 72
2020-06-22 03:00:00 19.6 6 Noroeste 14 Norte 0 -- -- 80
2020-06-22 02:00:00 20.6 0 Calma 15 Norte 0 -- -- 77
2020-06-22 01:00:00 21 3 Nordeste 18 Norte 0 -- -- 67
2020-06-22 00:00:00 21.1 10 Norte 22 Norte 0 -- -- 66
2020-06-21 23:00:00 21.6 14 Norte 27 Nordeste 0 -- -- 65
2020-06-21 22:00:00 22.4 11 Nordeste 36 Nordeste 0 -- -- 63
2020-06-21 21:00:00 22.5 24 Nordeste 40 Nordeste 0 -- -- 64
2020-06-21 20:00:00 24.4 23 Nordeste 36 Nordeste 0 -- -- 60
2020-06-21 19:00:00 29.4 17 Sur 28 Sur 0 -- -- 45
2020-06-21 18:00:00 29.9 21 Sur 28 Sur 0 -- -- 47
2020-06-21 17:00:00 30.2 22 Sur 30 Sur 0 -- -- 49
2020-06-21 16:00:00 30.4 23 Sur 33 Sur 0 -- -- 49
2020-06-21 15:00:00 30.2 23 Sur 32 Sur 0 -- -- 50
2020-06-21 14:00:00 29.1 23 Sur 31 Sur 0 -- -- 53
2020-06-21 13:00:00 27.9 22 Sur 31 Sur 0 -- -- 56
2020-06-21 12:00:00 27.4 22 Sur 28 Sur 0 -- -- 58
2020-06-21 11:00:00 25.9 14 Sur 19 Sur 0 -- -- 55
2020-06-21 10:00:00 22.4 8 Nordeste 15 Norte 0 -- -- 60
2020-06-21 09:00:00 18.9 6 Nordeste 14 Norte 0 -- -- 71
2020-06-21 08:00:00 18.7 7 Este 26 Norte 0 -- -- 71
2020-06-21 07:00:00 18.3 12 Nordeste 18 Nordeste 0 -- -- 74
2020-06-21 06:00:00 18.1 8 Norte 14 Norte 0 -- -- 73
2020-06-21 05:00:00 18.5 8 Norte 19 Nordeste 0 -- -- 73
2020-06-21 04:00:00 18.8 10 Nordeste 19 Nordeste 0 -- -- 71
2020-06-21 03:00:00 19.3 11 Nordeste 18 Nordeste 0 -- -- 70
2020-06-21 02:00:00 19.6 10 Nordeste 22 Nordeste 0 -- -- 69
2020-06-21 01:00:00 20.5 15 Nordeste 33 Nordeste 0 -- -- 66
2020-06-21 00:00:00 20.5 21 Nordeste 29 Nordeste 0 -- -- 68
2020-06-20 23:00:00 20.7 13 Nordeste 24 Nordeste 0 -- -- 70
2020-06-20 22:00:00 21.4 13 Nordeste 28 Nordeste 0 -- -- 68
2020-06-20 21:00:00 22.5 16 Nordeste 28 Nordeste 0 -- -- 62
2020-06-20 20:00:00 24.3 18 Nordeste 28 Nordeste 0 -- -- 57
2020-06-20 19:00:00 25.5 15 Norte 24 Noroeste 0 -- -- 54
2020-06-20 18:00:00 27.8 9 Sur 31 Sur 0 -- -- 51
2020-06-20 17:00:00 29.5 22 Sur 38 Sur 0 -- -- 51
2020-06-20 16:00:00 29.5 26 Sur 34 Sudoeste 0 -- -- 52
2020-06-20 15:00:00 26.6 10 Nordeste 30 Noroeste 0 -- -- 55
2020-06-20 14:00:00 29.2 22 Sur 32 Sur 0 -- -- 52
2020-06-20 13:00:00 27.4 21 Sur 31 Sur 0 -- -- 57
2020-06-20 12:00:00 24.4 18 Norte 28 Norte 0 -- -- 54
2020-06-20 11:00:00 24.3 9 Nordeste 21 Sudeste 0 -- -- 55
2020-06-20 10:00:00 22.5 9 Este 15 Este 0 -- -- 63
2020-06-20 09:00:00 19.1 4 Sur 22 Nordeste 0 -- -- 70
2020-06-20 08:00:00 19.7 7 Este 30 Este 0 -- -- 70
2020-06-20 07:00:00 19.5 13 Nordeste 24 Nordeste 0 -- -- 68
2020-06-20 06:00:00 18.9 0 Calma 16 Este 0 -- -- 71
2020-06-20 05:00:00 19.6 5 Sudeste 22 Este 0 -- -- 68
2020-06-20 04:00:00 19.6 7 Norte 20 Nordeste 0 -- -- 69
2020-06-20 03:00:00 19.8 8 Norte 11 Norte 0 -- -- 66
2020-06-20 02:00:00 20.9 4 Este 22 Este 0 -- -- 70
2020-06-20 01:00:00 21.1 13 Nordeste 24 Este 0 -- -- 62
2020-06-20 00:00:00 21.8 16 Norte 30 Norte 0 -- -- 56
2020-06-19 23:00:00 21.6 22 Norte 34 Norte 0 -- -- 59
2020-06-19 22:00:00 21.8 18 Norte 34 Norte 0 -- -- 59
2020-06-19 21:00:00 22.3 16 Norte 30 Norte 0 -- -- 62
2020-06-19 20:00:00 24.4 15 Norte 23 Noroeste 0 -- -- 56
2020-06-19 19:00:00 29.2 10 Sur 26 Sur 0 -- -- 45
2020-06-19 18:00:00 29.9 20 Sur 30 Sur 0 -- -- 44
2020-06-19 17:00:00 30.1 22 Sur 33 Sur 0 -- -- 46
2020-06-19 16:00:00 30.2 22 Sur 31 Sur 0 -- -- 43
2020-06-19 15:00:00 28.5 23 Sur 32 Sur 0 -- -- 48
2020-06-19 14:00:00 29.8 23 Sur 32 Sur 0 -- -- 48
2020-06-19 13:00:00 28.7 22 Sur 33 Sur 0 -- -- 51
2020-06-19 12:00:00 26.3 23 Sur 31 Sur 0 -- -- 56
2020-06-19 11:00:00 24.6 17 Sur 22 Sur 0 -- -- 62
2020-06-19 10:00:00 22.5 10 Sur 16 Sur 0 -- -- 68
2020-06-19 09:00:00 19 0 Calma 6 Nordeste 0 -- -- 77
2020-06-19 08:00:00 18.4 0 Calma 7 Nordeste 0 -- -- 77
2020-06-19 07:00:00 18.5 5 Norte 9 Norte 0 -- -- 78
2020-06-19 06:00:00 18.8 5 Norte 12 Norte 0 -- -- 78
2020-06-19 05:00:00 19 6 Norte 12 Nordeste 0 -- -- 79
2020-06-19 04:00:00 19.2 6 Nordeste 12 Nordeste 0 -- -- 81
2020-06-19 03:00:00 19.5 4 Norte 8 Sur 0 -- -- 79
2020-06-19 02:00:00 20.1 7 Sur 23 Norte 0 -- -- 76
2020-06-19 01:00:00 20.7 14 Norte 37 Norte 0 -- -- 73
2020-06-19 00:00:00 20.8 15 Norte 37 Norte 0 -- -- 70
2020-06-18 23:00:00 20.7 23 Norte 42 Norte 0 -- -- 64
2020-06-18 22:00:00 20.3 18 Norte 31 Norte 0 -- -- 72
2020-06-18 21:00:00 21.2 15 Norte 41 Norte 0 -- -- 67
2020-06-18 20:00:00 22.9 19 Norte 47 Norte 0 -- -- 60
2020-06-18 19:00:00 23.7 21 Norte 44 Norte 0 -- -- 61
2020-06-18 18:00:00 23.8 21 Norte 41 Noroeste 0 -- -- 60
2020-06-18 17:00:00 23.3 26 Noroeste 46 Norte 0 -- -- 64
2020-06-18 16:00:00 22.3 27 Norte 45 Norte 0 -- -- 68
2020-06-18 15:00:00 23.2 29 Norte 53 Noroeste 0 -- -- 63
2020-06-18 14:00:00 23.8 27 Norte 52 Norte 0 -- -- 61
2020-06-18 13:00:00 23.4 27 Norte 52 Norte 0 -- -- 59
2020-06-18 12:00:00 23.4 19 Norte 44 Noroeste 0 -- -- 57
2020-06-18 11:00:00 23.1 16 Norte 36 Norte 0 -- -- 53
2020-06-18 10:00:00 22.1 18 Norte 40 Norte 0 -- -- 55
2020-06-18 09:00:00 20.5 23 Norte 35 Norte 0 -- -- 65
2020-06-18 08:00:00 20.1 18 Norte 32 Norte 0 -- -- 71
2020-06-18 07:00:00 20.5 19 Norte 34 Norte 0 -- -- 67
2020-06-18 06:00:00 20.6 17 Norte 32 Norte 0 -- -- 65
2020-06-18 05:00:00 20.4 18 Norte 31 Norte 0 -- -- 73
2020-06-18 04:00:00 20.2 11 Norte 21 Norte 0 -- -- 74
2020-06-18 03:00:00 19.8 4 Sur 10 Sudoeste 0 -- -- 87
2020-06-18 02:00:00 20.4 8 Sur 17 Sur 0 -- -- 84
2020-06-18 01:00:00 20.6 3 Sur 15 Sur 0 -- -- 85
2020-06-18 00:00:00 21.2 9 Sur 15 Sur 0 -- -- 83
2020-06-17 23:00:00 21.6 8 Sur 17 Sur 0 -- -- 81
2020-06-17 22:00:00 21.9 13 Sur 18 Sur 0 -- -- 80
2020-06-17 21:00:00 22.5 14 Sur 23 Sur 0 -- -- 76
2020-06-17 20:00:00 23.5 15 Sur 26 Sur 0 -- -- 73
2020-06-17 19:00:00 24.6 14 Sur 28 Sur 0 -- -- 68
2020-06-17 18:00:00 27.6 20 Sur 27 Sur 0 -- -- 58
2020-06-17 17:00:00 26.9 21 Sur 39 Sur 0 -- -- 61
2020-06-17 16:00:00 29.1 21 Sur 34 Sur 0 -- -- 54
2020-06-17 15:00:00 29.8 14 Sur 35 Sur 0 -- -- 51
2020-06-17 14:00:00 29.7 16 Sur 24 Sur 0 -- -- 54
2020-06-17 13:00:00 26.9 16 Sudoeste 40 Sur 0 -- -- 60
2020-06-17 12:00:00 27.1 9 Norte 24 Norte 0 -- -- 57
2020-06-17 11:00:00 24.7 6 Sur 38 Nordeste 0 -- -- 68
2020-06-17 10:00:00 22.7 28 Nordeste 46 Norte 0 -- -- 67
2020-06-17 09:00:00 22 4 Nordeste 22 Sudeste 0 -- -- 78
2020-06-17 08:00:00 21.7 4 Norte 21 Sur 0 -- -- 78
2020-06-17 07:00:00 21.6 6 Noroeste 13 Sur 0 -- -- 79
2020-06-17 06:00:00 22.6 10 Sur 27 Norte 0 -- -- 74
2020-06-17 05:00:00 23.2 6 Sudeste 40 Sur 0 -- -- 70
2020-06-17 04:00:00 28.2 24 Nordeste 53 Nordeste 0 -- -- 42
2020-06-17 03:00:00 27.3 21 Nordeste 43 Nordeste 0 -- -- 44
2020-06-17 02:00:00 26.6 25 Norte 60 Nordeste 0 -- -- 45
2020-06-17 01:00:00 27.3 32 Norte 66 Norte 0 -- -- 43
2020-06-17 00:00:00 27.9 27 Nordeste 60 Nordeste 0 -- -- 41
2020-06-16 23:00:00 28.4 32 Norte 62 Nordeste 0 -- -- 38
2020-06-16 22:00:00 28.5 32 Norte 57 Nordeste 0 -- -- 38
2020-06-16 21:00:00 28.4 27 Norte 60 Norte 0 -- -- 39
2020-06-16 20:00:00 28.8 31 Norte 66 Nordeste 0 -- -- 37
2020-06-16 19:00:00 29.5 41 Norte 72 Nordeste 0 -- -- 37
2020-06-16 18:00:00 29.9 41 Norte 77 Norte 0 -- -- 35
2020-06-16 17:00:00 30.9 27 Norte 55 Nordeste 0 -- -- 47
2020-06-16 16:00:00 31.1 30 Norte 55 Nordeste 0 -- -- 34
2020-06-16 15:00:00 30.8 15 Sur 36 Norte 0 -- -- 46
2020-06-16 14:00:00 28.3 23 Sur 40 Sur 0 -- -- 56
2020-06-16 13:00:00 28.5 18 Sur 42 Sur 0 -- -- 53
2020-06-16 12:00:00 26.5 18 Sur 28 Sur 0 -- -- 62
2020-06-16 11:00:00 25 15 Sur 36 Sur 0 -- -- 71
2020-06-16 10:00:00 23.7 13 Sur 24 Sur 0 -- -- 77
2020-06-16 09:00:00 22.5 18 Sur 30 Sur 0 -- -- 76
2020-06-16 08:00:00 21.5 2 Norte 9 Norte 0 -- -- 74
2020-06-16 07:00:00 21.3 5 Nordeste 14 Sudeste 0 -- -- 77
2020-06-16 06:00:00 21.4 4 Sudoeste 19 Sur 0 -- -- 78
2020-06-16 05:00:00 21.7 6 Norte 13 Norte 0 -- -- 74
2020-06-16 04:00:00 20.8 2 Norte 6 Norte 0 -- -- 84
2020-06-16 03:00:00 20.9 4 Sudoeste 9 Sur 0 -- -- 84
2020-06-16 02:00:00 21 0 Calma 7 Sudoeste 0 -- -- 84
2020-06-16 01:00:00 21.4 4 Sudoeste 13 Sur 0 -- -- 82
2020-06-16 00:00:00 22 0 Calma 15 Sur 0 -- -- 80
2020-06-15 23:00:00 22.7 12 Sur 22 Sudoeste 0 -- -- 76
2020-06-15 22:00:00 23.7 6 Sudoeste 39 Sur 0 -- -- 71
2020-06-15 21:00:00 27.4 16 Norte 50 Noroeste 0 -- -- 44
2020-06-15 20:00:00 27.7 25 Norte 51 Noroeste 0 -- -- 45
2020-06-15 19:00:00 28.4 16 Noroeste 61 Noroeste 0 -- -- 43
2020-06-15 18:00:00 27.9 14 Sudoeste 41 Norte 0 -- -- 57
2020-06-15 17:00:00 28 27 Sur 49 Sur 0 -- -- 55
2020-06-15 16:00:00 29.6 17 Noroeste 44 Noroeste 0 -- -- 42
2020-06-15 15:00:00 28.9 17 Oeste 51 Noroeste 0 -- -- 55
2020-06-15 14:00:00 30 24 Norte 51 Noroeste 0 -- -- 41
2020-06-15 13:00:00 29.2 15 Norte 37 Sur 0 -- -- 48
2020-06-15 12:00:00 27 22 Sur 35 Sur 0 -- -- 62
2020-06-15 11:00:00 25.5 13 Sudoeste 23 Sur 0 -- -- 59
2020-06-15 10:00:00 23.7 13 Sur 31 Sur 0 -- -- 75
2020-06-15 09:00:00 21.4 12 Nordeste 29 Norte 0 -- -- 76
2020-06-15 08:00:00 20.6 3 Este 12 Sudeste 0 -- -- 86
2020-06-15 07:00:00 20.4 3 Norte 14 Sur 0 -- -- 85
2020-06-15 06:00:00 20.7 3 Nordeste 10 Sudeste 0 -- -- 85
2020-06-15 05:00:00 20.7 6 Norte 13 Norte 0 -- -- 86
2020-06-15 04:00:00 21.1 2 Sudeste 22 Sur 0.2 -- -- 84
2020-06-15 03:00:00 21.3 8 Norte 15 Nordeste 0 -- -- 79
2020-06-15 02:00:00 20.7 18 Sudeste 52 Sur 0 -- -- 83
2020-06-15 01:00:00 22 17 Sur 37 Sur 0.2 -- -- 76
2020-06-15 00:00:00 26.3 13 Norte 25 Sur 0.2 -- -- 52
2020-06-14 23:00:00 28 10 Nordeste 16 Nordeste 0 -- -- 46
2020-06-14 22:00:00 27.8 16 Norte 23 Norte 0 -- -- 43
2020-06-14 21:00:00 27.8 14 Norte 37 Este 0 -- -- 30
2020-06-14 20:00:00 24.5 6 Oeste 23 Sur 0 -- -- 61
2020-06-14 19:00:00 25.7 6 Norte 33 Este 0 -- -- 45
2020-06-14 18:00:00 25.4 13 Nordeste 24 Sur 0 -- -- 51
2020-06-14 17:00:00 24.7 10 Sudoeste 28 Sur 0 -- -- 61
2020-06-14 16:00:00 27.1 21 Sur 31 Sur 0 -- -- 54
2020-06-14 15:00:00 27.3 16 Sur 38 Sur 0 -- -- 54
2020-06-14 14:00:00 28.6 21 Sur 35 Sur 0 -- -- 51
2020-06-14 13:00:00 27.7 26 Sur 32 Sur 0 -- -- 52
2020-06-14 12:00:00 26.9 19 Sur 27 Sur 0 -- -- 54
2020-06-14 11:00:00 24.7 12 Sur 22 Sur 0 -- -- 59
2020-06-14 10:00:00 22.5 13 Sur 18 Sur 0 -- -- 62
2020-06-14 09:00:00 18.8 0 Calma 6 Norte 0 -- -- 71
2020-06-14 08:00:00 17.8 5 Norte 9 Norte 0 -- -- 71
2020-06-14 07:00:00 17.1 6 Norte 9 Norte 0 -- -- 73
2020-06-14 06:00:00 17.5 2 Sudoeste 11 Norte 0 -- -- 73
2020-06-14 05:00:00 17.9 6 Nordeste 11 Norte 0 -- -- 73
2020-06-14 04:00:00 17.8 5 Norte 7 Norte 0 -- -- 73
2020-06-14 03:00:00 17.9 4 Norte 8 Norte 0 -- -- 74
2020-06-14 02:00:00 18.4 6 Norte 9 Sudeste 0 -- -- 76
2020-06-14 01:00:00 18.7 2 Noroeste 9 Nordeste 0 -- -- 75
2020-06-14 00:00:00 19.4 4 Sur 15 Sur 0 -- -- 73
2020-06-13 23:00:00 19.8 9 Sur 16 Sur 0 -- -- 72
2020-06-13 22:00:00 20.6 12 Sur 17 Sur 0 -- -- 69
2020-06-13 21:00:00 21.9 11 Sur 17 Sur 0 -- -- 64
2020-06-13 20:00:00 24.3 10 Sudoeste 36 Sur 0 -- -- 55
2020-06-13 19:00:00 26.7 24 Sur 30 Sur 0 -- -- 47
2020-06-13 18:00:00 27.4 17 Sur 33 Sur 0 -- -- 46
2020-06-13 17:00:00 27.7 23 Sur 40 Sur 0 -- -- 49
2020-06-13 16:00:00 27.9 19 Sur 39 Sur 0 -- -- 47
2020-06-13 15:00:00 28 20 Sur 34 Sudeste 0 -- -- 46
2020-06-13 14:00:00 26.6 24 Sur 36 Sur 0 -- -- 49
2020-06-13 13:00:00 26.1 24 Sur 32 Sur 0 -- -- 52
2020-06-13 12:00:00 24.8 19 Sur 33 Sur 0 -- -- 54
2020-06-13 11:00:00 23.7 11 Sur 21 Sur 0 -- -- 57
2020-06-13 10:00:00 21.8 12 Sur 26 Sur 0 -- -- 62
2020-06-13 09:00:00 19.5 3 Norte 15 Sur 0 -- -- 67
2020-06-13 08:00:00 18.6 8 Sur 17 Nordeste 0 -- -- 70
2020-06-13 07:00:00 18.1 9 Nordeste 14 Nordeste 0 -- -- 72
2020-06-13 06:00:00 18.5 0 Calma 12 Nordeste 0 -- -- 70
2020-06-13 05:00:00 18.9 6 Norte 23 Sur 0 -- -- 70
2020-06-13 04:00:00 19 11 Sur 27 Nordeste 0 -- -- 66
2020-06-13 03:00:00 18.8 18 Nordeste 29 Nordeste 0 -- -- 70
2020-06-13 02:00:00 18.9 11 Nordeste 21 Nordeste 0 -- -- 67
2020-06-13 01:00:00 19.4 4 Sudeste 35 Norte 0 -- -- 66
2020-06-13 00:00:00 19.7 6 Noroeste 37 Sur 0 -- -- 69
2020-06-12 23:00:00 20.2 8 Norte 37 Este 0 -- -- 58
2020-06-12 22:00:00 21.2 13 Norte 26 Norte 0 -- -- 53
2020-06-12 21:00:00 21.3 5 Sudeste 33 Nordeste 0 -- -- 62
2020-06-12 20:00:00 21.4 10 Nordeste 25 Nordeste 0 -- -- 55
2020-06-12 19:00:00 22.1 4 Oeste 26 Sur 0 -- -- 58
2020-06-12 18:00:00 23.5 16 Sur 27 Sur 0 -- -- 59
2020-06-12 17:00:00 25.5 21 Sur 28 Sur 0 -- -- 52
2020-06-12 16:00:00 26.3 18 Sur 27 Sur 0 -- -- 50
2020-06-12 15:00:00 25.8 23 Sur 29 Sur 0 -- -- 52
2020-06-12 14:00:00 22.4 17 Norte 25 Norte 0 -- -- 58
2020-06-12 13:00:00 23.6 7 Sur 25 Sur 0 -- -- 55
2020-06-12 12:00:00 22.6 18 Sur 31 Sur 0 -- -- 61
2020-06-12 11:00:00 21.3 8 Norte 28 Norte 0 -- -- 58
2020-06-12 10:00:00 20.8 9 Norte 19 Norte 0 -- -- 55
2020-06-12 09:00:00 19.4 12 Norte 37 Norte 0 -- -- 61
2020-06-12 08:00:00 18.4 12 Norte 28 Norte 0 -- -- 67
2020-06-12 07:00:00 18.4 8 Nordeste 24 Este 0 -- -- 67
2020-06-12 06:00:00 18.4 11 Nordeste 24 Nordeste 0 -- -- 70
2020-06-12 05:00:00 18.8 7 Sudeste 27 Norte 0 -- -- 68
2020-06-12 04:00:00 18.7 9 Norte 20 Nordeste 0 -- -- 69
2020-06-12 03:00:00 18.7 11 Nordeste 17 Nordeste 0 -- -- 73
2020-06-12 02:00:00 19.3 13 Sur 27 Oeste 0 -- -- 74
2020-06-12 01:00:00 19.6 2 Oeste 29 Sur 0 -- -- 75
2020-06-12 00:00:00 20 10 Noroeste 22 Norte 0 -- -- 66
2020-06-11 23:00:00 20.2 9 Sudoeste 26 Norte 0 -- -- 72
2020-06-11 22:00:00 20.7 9 Norte 16 Nordeste 0 -- -- 67
2020-06-11 21:00:00 21.1 7 Este 32 Nordeste 0 -- -- 67
2020-06-11 20:00:00 21.5 17 Nordeste 35 Nordeste 0 -- -- 65
2020-06-11 19:00:00 20.9 4 Norte 23 Sur 0 -- -- 72
2020-06-11 18:00:00 21.7 18 Sur 30 Sur 0 -- -- 70
2020-06-11 17:00:00 24.5 21 Sur 36 Sur 0 -- -- 61
2020-06-11 16:00:00 26.7 20 Sur 27 Sur 0 -- -- 53
2020-06-11 15:00:00 24.1 18 Sur 28 Sur 0 -- -- 62
2020-06-11 14:00:00 24 13 Sur 26 Sur 0 -- -- 64
2020-06-11 13:00:00 23 15 Sur 40 Sur 0 -- -- 66
2020-06-11 12:00:00 23.7 23 Sur 35 Sur 0 -- -- 65
2020-06-11 11:00:00 23.6 9 Sur 15 Sur 0 -- -- 64
2020-06-11 10:00:00 21.6 8 Sudoeste 13 Sur 0 -- -- 70
2020-06-11 09:00:00 20.6 6 Sur 13 Sur 0 -- -- 76
2020-06-11 08:00:00 20 7 Sur 14 Sudeste 0 -- -- 77
2020-06-11 07:00:00 19.9 11 Sur 15 Sur 0 -- -- 76
2020-06-11 06:00:00 19.9 9 Sudoeste 16 Sur 0 -- -- 75
2020-06-11 05:00:00 19.9 10 Sur 13 Sur 0 -- -- 75
2020-06-11 04:00:00 20.2 5 Sur 14 Sur 0 -- -- 74
2020-06-11 03:00:00 20.4 8 Sur 17 Sur 0 -- -- 75
2020-06-11 02:00:00 20.4 12 Sur 19 Sur 0 -- -- 75
2020-06-11 01:00:00 20.5 10 Sur 19 Sudeste 0 -- -- 76
2020-06-11 00:00:00 20.6 12 Sur 16 Sur 0 -- -- 72